Time;durP1;ratioP1;P1;durP2;ratioP2;P2;SDS_P1;SDS_P2;PMS_P1;PMS_P2;Temp;Humidity;BMP_temperature;BMP_pressure;BME280_temperature;BME280_humidity;BME280_pressure;Samples;Min_cycle;Max_cycle;Signal;HPM_P1;HPM_P2
2022/09/30 00:00:06;;;;;;;7.63;6.90;;;;;;;;;;5095606;28;20295;-66
2022/09/30 00:02:33;;;;;;;12.53;6.50;;;;;;;;;;5092163;28;20749;-65
2022/09/30 00:05:00;;;;;;;8.77;6.43;;;;;;;;;;5091925;28;20228;-66
2022/09/30 00:07:28;;;;;;;6.67;6.07;;;;;;;;;;5092086;28;20232;-66
2022/09/30 00:09:56;;;;;;;6.90;6.30;;;;;;;;;;5092231;28;20300;-64
2022/09/30 00:12:23;;;;;;;6.93;6.23;;;;;;;;;;5091336;28;20773;-66
2022/09/30 00:14:50;;;;;;;10.90;7.27;;;;;;;;;;5110150;28;20318;-65
2022/09/30 00:17:19;;;;;;;6.93;6.33;;;;;;;;;;5092072;28;20196;-66
2022/09/30 00:19:46;;;;;;;41.97;7.53;;;;;;;;;;5092028;28;20334;-66
2022/09/30 00:22:13;;;;;;;67.43;7.20;;;;;;;;;;5092165;28;20570;-65
2022/09/30 00:24:41;;;;;;;33.33;6.57;;;;;;;;;;5091746;28;20741;-65
2022/09/30 00:27:08;;;;;;;33.00;6.10;;;;;;;;;;5091794;28;20204;-66
2022/09/30 00:29:35;;;;;;;165.57;7.87;;;;;;;;;;5095646;28;20230;-65
2022/09/30 00:32:03;;;;;;;9.80;4.07;;;;;;;;;;5092609;28;20299;-66
2022/09/30 00:34:30;;;;;;;44.37;5.93;;;;;;;;;;5096037;28;20311;-65
2022/09/30 00:37:00;;;;;;;66.33;7.47;;;;;;;;;;5102860;28;20204;-65
2022/09/30 00:39:28;;;;;;;16.17;6.77;;;;;;;;;;5086222;28;20795;-65
2022/09/30 00:41:58;;;;;;;24.90;6.40;;;;;;;;;;5086545;28;20837;-65
2022/09/30 00:44:44;;;;;;;10.57;6.53;;;;;;;;;;5094899;28;20615;-65
2022/09/30 00:47:30;;;;;;;24.53;7.60;;;;;;;;;;5074853;28;20209;-66
2022/09/30 00:49:59;;;;;;;15.90;7.13;;;;;;;;;;5075294;28;20204;-65
2022/09/30 00:52:27;;;;;;;7.57;6.47;;;;;;;;;;5074834;28;20303;-64
2022/09/30 00:54:56;;;;;;;7.90;6.53;;;;;;;;;;5076663;28;20225;-65
2022/09/30 00:57:23;;;;;;;6.47;5.87;;;;;;;;;;5091767;27;20204;-65
2022/09/30 00:59:51;;;;;;;6.10;5.50;;;;;;;;;;5103844;28;20279;-65
2022/09/30 01:02:18;;;;;;;6.00;5.40;;;;;;;;;;5094048;28;20669;-65
2022/09/30 01:04:46;;;;;;;6.57;5.97;;;;;;;;;;5094840;28;20216;-66
2022/09/30 01:07:14;;;;;;;5.83;5.23;;;;;;;;;;5112701;28;20681;-65
2022/09/30 01:09:42;;;;;;;8.10;5.23;;;;;;;;;;5094879;28;20204;-66
2022/09/30 01:12:15;;;;;;;6.43;5.67;;;;;;;;;;5095173;28;20222;-66
2022/09/30 01:14:43;;;;;;;5.67;5.13;;;;;;;;;;5094898;28;20311;-65
2022/09/30 01:17:24;;;;;;;5.50;5.00;;;;;;;;;;5094378;28;20279;-64
2022/09/30 01:19:57;;;;;;;6.40;5.80;;;;;;;;;;5112155;28;20204;-64
2022/09/30 01:22:24;;;;;;;5.63;5.13;;;;;;;;;;5094534;28;20756;-66
2022/09/30 01:24:54;;;;;;;5.83;5.33;;;;;;;;;;5094897;28;20678;-65
2022/09/30 01:27:45;;;;;;;5.73;5.23;;;;;;;;;;5094911;27;20312;-65
2022/09/30 01:30:31;;;;;;;5.90;5.30;;;;;;;;;;5097619;28;20200;-65
2022/09/30 01:33:21;;;;;;;5.63;5.13;;;;;;;;;;5094976;28;20303;-65
2022/09/30 01:35:51;;;;;;;6.07;5.00;;;;;;;;;;5091578;28;20310;-65
2022/09/30 01:38:29;;;;;;;5.00;4.60;;;;;;;;;;5095331;28;20287;-65
2022/09/30 01:41:00;;;;;;;5.40;5.00;;;;;;;;;;5111492;28;20204;-65
2022/09/30 01:43:37;;;;;;;5.17;4.77;;;;;;;;;;5110528;28;20643;-65
2022/09/30 01:46:05;;;;;;;4.90;4.50;;;;;;;;;;5110996;28;20787;-65
2022/09/30 01:48:51;;;;;;;4.70;4.30;;;;;;;;;;5112457;28;20722;-64
2022/09/30 01:51:38;;;;;;;5.33;4.70;;;;;;;;;;5110943;28;20243;-65
2022/09/30 01:54:18;;;;;;;5.37;4.87;;;;;;;;;;5076064;28;20288;-65
2022/09/30 01:56:49;;;;;;;4.90;4.50;;;;;;;;;;5073286;28;20725;-65
2022/09/30 01:59:33;;;;;;;6.70;5.10;;;;;;;;;;5099404;27;20239;-64
2022/09/30 02:02:14;;;;;;;5.10;4.70;;;;;;;;;;5074127;28;20636;-65
2022/09/30 02:04:42;;;;;;;5.83;5.20;;;;;;;;;;5074040;28;20205;-65
2022/09/30 02:07:19;;;;;;;6.03;5.47;;;;;;;;;;5073403;28;20205;-65
2022/09/30 02:09:53;;;;;;;6.47;5.87;;;;;;;;;;5074302;28;20215;-65
2022/09/30 02:12:24;;;;;;;6.73;6.13;;;;;;;;;;5077110;27;20235;-65
2022/09/30 02:14:55;;;;;;;7.20;5.73;;;;;;;;;;5100748;28;20774;-64
2022/09/30 02:17:25;;;;;;;6.10;5.50;;;;;;;;;;5095352;28;20291;-65
2022/09/30 02:20:01;;;;;;;6.17;5.63;;;;;;;;;;5093952;28;20246;-65
2022/09/30 02:22:39;;;;;;;5.60;5.10;;;;;;;;;;5093636;28;20211;-65
2022/09/30 02:25:08;;;;;;;5.93;5.40;;;;;;;;;;5093543;28;20270;-64
2022/09/30 02:27:40;;;;;;;5.80;5.30;;;;;;;;;;5090847;27;20709;-65
2022/09/30 02:30:09;;;;;;;7.00;5.17;;;;;;;;;;5096965;28;20389;-65
2022/09/30 02:32:45;;;;;;;6.30;5.70;;;;;;;;;;5093304;28;20295;-64
2022/09/30 02:35:18;;;;;;;7.30;5.90;;;;;;;;;;5092783;28;20768;-65
2022/09/30 02:37:52;;;;;;;8.50;7.00;;;;;;;;;;5104648;27;20442;-64
2022/09/30 02:40:35;;;;;;;6.70;6.10;;;;;;;;;;5093052;28;20192;-64
2022/09/30 02:43:04;;;;;;;7.53;5.87;;;;;;;;;;5093238;28;20222;-65
2022/09/30 02:45:37;;;;;;;8.10;6.00;;;;;;;;;;5075909;28;20263;-64
2022/09/30 02:48:04;;;;;;;8.67;5.17;;;;;;;;;;5090087;28;20208;-65
2022/09/30 02:50:55;;;;;;;5.67;5.17;;;;;;;;;;5073084;28;20205;-64
2022/09/30 02:53:28;;;;;;;5.60;5.10;;;;;;;;;;5067540;28;20292;-64
2022/09/30 02:56:08;;;;;;;6.10;5.60;;;;;;;;;;5072221;28;20238;-64
2022/09/30 02:58:38;;;;;;;6.50;5.87;;;;;;;;;;5091780;28;20287;-64
2022/09/30 03:01:07;;;;;;;6.10;5.60;;;;;;;;;;5094033;28;20204;-64
2022/09/30 03:03:39;;;;;;;15.27;4.47;;;;;;;;;;5111238;28;20204;-65
2022/09/30 03:06:06;;;;;;;14.33;3.77;;;;;;;;;;5092932;28;20228;-65
2022/09/30 03:08:34;;;;;;;11.43;3.77;;;;;;;;;;5092889;28;20366;-64
2022/09/30 03:11:02;;;;;;;6.17;4.00;;;;;;;;;;5093336;28;20283;-64
2022/09/30 03:13:42;;;;;;;5.90;4.30;;;;;;;;;;5095391;27;20291;-65
2022/09/30 03:16:29;;;;;;;7.17;4.67;;;;;;;;;;5095886;28;20681;-64
2022/09/30 03:18:59;;;;;;;4.97;4.57;;;;;;;;;;5080847;28;20212;-65
2022/09/30 03:21:53;;;;;;;13.27;4.37;;;;;;;;;;5073146;28;20272;-65
2022/09/30 03:24:23;;;;;;;4.60;4.20;;;;;;;;;;5057183;28;20291;-63
2022/09/30 03:26:54;;;;;;;35.70;4.40;;;;;;;;;;5072821;28;20228;-65
2022/09/30 03:29:27;;;;;;;8.03;4.37;;;;;;;;;;5124981;28;20265;-65
2022/09/30 03:32:03;;;;;;;10.60;5.17;;;;;;;;;;5126647;28;20203;-65
2022/09/30 03:34:36;;;;;;;15.20;5.70;;;;;;;;;;5111115;28;20214;-64
2022/09/30 03:37:28;;;;;;;10.70;5.27;;;;;;;;;;5090430;28;20222;-65
2022/09/30 03:40:09;;;;;;;12.10;4.97;;;;;;;;;;5072142;28;20197;-65
2022/09/30 03:42:38;;;;;;;8.60;4.77;;;;;;;;;;5072767;28;20210;-65
2022/09/30 03:45:16;;;;;;;23.27;4.30;;;;;;;;;;5098643;28;20223;-65
2022/09/30 03:47:46;;;;;;;14.40;3.60;;;;;;;;;;5092136;28;20236;-65
2022/09/30 03:50:15;;;;;;;5.90;3.13;;;;;;;;;;5092690;28;20577;-65
2022/09/30 03:52:43;;;;;;;8.70;3.40;;;;;;;;;;5092295;28;20287;-65
2022/09/30 03:55:10;;;;;;;16.70;3.53;;;;;;;;;;5092392;28;20220;-65
2022/09/30 03:57:38;;;;;;;3.57;3.17;;;;;;;;;;5092076;28;20204;-65
2022/09/30 04:00:06;;;;;;;11.17;3.53;;;;;;;;;;5092427;28;20208;-65
2022/09/30 04:02:36;;;;;;;13.27;3.70;;;;;;;;;;5092517;28;20215;-65
2022/09/30 04:05:04;;;;;;;11.30;3.60;;;;;;;;;;5091962;28;20226;-64
2022/09/30 04:07:31;;;;;;;12.00;3.80;;;;;;;;;;5094122;28;20291;-65
2022/09/30 04:09:59;;;;;;;5.57;3.13;;;;;;;;;;5084002;28;20630;-65
2022/09/30 04:12:26;;;;;;;3.13;2.93;;;;;;;;;;5086103;28;20641;-65
2022/09/30 04:14:53;;;;;;;3.50;3.20;;;;;;;;;;5101922;28;20303;-64
2022/09/30 04:17:21;;;;;;;4.83;3.00;;;;;;;;;;5096233;28;20230;-65
2022/09/30 04:19:48;;;;;;;4.33;3.50;;;;;;;;;;5096169;28;20284;-64
2022/09/30 04:22:16;;;;;;;15.47;11.77;;;;;;;;;;5096169;28;20228;-65
2022/09/30 04:24:43;;;;;;;25.53;17.57;;;;;;;;;;5095722;28;20291;-66
2022/09/30 04:27:10;;;;;;;49.40;27.57;;;;;;;;;;5096096;28;20699;-65
2022/09/30 04:29:38;;;;;;;35.70;25.07;;;;;;;;;;5102322;28;20751;-64
2022/09/30 04:32:05;;;;;;;35.77;22.93;;;;;;;;;;5095540;28;20207;-65
2022/09/30 04:34:33;;;;;;;22.23;12.73;;;;;;;;;;5095609;28;20765;-65
2022/09/30 04:37:00;;;;;;;14.20;8.97;;;;;;;;;;5093325;28;20306;-65
2022/09/30 04:39:27;;;;;;;10.87;6.83;;;;;;;;;;5092820;28;20255;-64
2022/09/30 04:41:56;;;;;;;17.70;6.67;;;;;;;;;;5090123;28;20195;-65
2022/09/30 04:44:23;;;;;;;7.63;6.83;;;;;;;;;;5088801;27;20204;-65
2022/09/30 04:46:50;;;;;;;16.93;7.87;;;;;;;;;;5100942;28;20232;-65
2022/09/30 04:49:18;;;;;;;13.40;7.10;;;;;;;;;;5095219;28;20215;-65
2022/09/30 04:51:45;;;;;;;8.13;6.57;;;;;;;;;;5095378;28;20239;-65
2022/09/30 04:54:13;;;;;;;11.00;6.23;;;;;;;;;;5095384;28;20291;-65
2022/09/30 04:56:40;;;;;;;5.90;5.07;;;;;;;;;;5094672;28;20324;-65
2022/09/30 04:59:07;;;;;;;6.17;5.57;;;;;;;;;;5103310;28;20228;-64
2022/09/30 05:01:35;;;;;;;5.80;5.00;;;;;;;;;;5094526;28;20639;-65
2022/09/30 05:04:02;;;;;;;6.10;4.20;;;;;;;;;;5095354;28;20658;-65
2022/09/30 05:06:30;;;;;;;4.70;4.30;;;;;;;;;;5094161;28;20255;-65
2022/09/30 05:08:57;;;;;;;5.30;4.30;;;;;;;;;;5095105;28;20208;-65
2022/09/30 05:11:25;;;;;;;4.63;4.23;;;;;;;;;;5095081;28;20287;-65
2022/09/30 05:13:53;;;;;;;4.53;4.13;;;;;;;;;;5099761;28;20291;-64
2022/09/30 05:16:21;;;;;;;4.53;4.13;;;;;;;;;;5114362;27;20228;-65
2022/09/30 05:18:48;;;;;;;5.00;4.60;;;;;;;;;;5094882;28;20206;-64
2022/09/30 05:21:17;;;;;;;5.20;4.70;;;;;;;;;;5094883;28;20204;-65
2022/09/30 05:23:44;;;;;;;5.17;4.70;;;;;;;;;;5094866;28;20247;-64
2022/09/30 05:26:12;;;;;;;6.07;5.30;;;;;;;;;;5094654;28;20235;-64
2022/09/30 05:28:40;;;;;;;8.13;5.30;;;;;;;;;;5104852;27;20265;-64
2022/09/30 05:31:07;;;;;;;4.90;4.50;;;;;;;;;;5100514;28;20286;-64
2022/09/30 05:33:35;;;;;;;4.80;4.40;;;;;;;;;;5091071;28;20232;-65
2022/09/30 05:36:04;;;;;;;13.50;6.77;;;;;;;;;;5098790;28;20250;-64
2022/09/30 05:38:31;;;;;;;10.70;8.87;;;;;;;;;;5111684;27;20302;-65
2022/09/30 05:41:06;;;;;;;5.97;5.00;;;;;;;;;;5099205;28;20235;-63
2022/09/30 05:43:33;;;;;;;4.97;4.13;;;;;;;;;;5095289;27;20497;-64
2022/09/30 05:46:01;;;;;;;5.50;5.00;;;;;;;;;;5101729;28;20323;-65
2022/09/30 05:48:28;;;;;;;7.83;7.13;;;;;;;;;;5096773;27;20195;-65
2022/09/30 05:50:56;;;;;;;6.60;6.00;;;;;;;;;;5105808;28;20292;-64
2022/09/30 05:53:24;;;;;;;7.90;5.70;;;;;;;;;;5074269;28;20515;-65
2022/09/30 05:55:52;;;;;;;13.40;10.40;;;;;;;;;;5095416;28;20228;-64
2022/09/30 05:58:20;;;;;;;12.77;9.10;;;;;;;;;;5099514;28;20235;-64
2022/09/30 06:00:48;;;;;;;10.97;8.63;;;;;;;;;;5089570;28;20200;-64
2022/09/30 06:03:16;;;;;;;9.37;8.30;;;;;;;;;;5095543;28;20206;-65
2022/09/30 06:05:44;;;;;;;9.43;8.03;;;;;;;;;;5093365;28;20220;-64
2022/09/30 06:08:12;;;;;;;9.57;7.87;;;;;;;;;;5093605;28;20200;-65
2022/09/30 06:10:44;;;;;;;11.40;7.97;;;;;;;;;;5096006;27;20275;-65
2022/09/30 06:13:11;;;;;;;10.10;8.63;;;;;;;;;;5120725;27;20293;-65
2022/09/30 06:15:40;;;;;;;10.70;8.63;;;;;;;;;;5093455;28;20252;-65
2022/09/30 06:18:08;;;;;;;10.93;8.93;;;;;;;;;;5094044;28;20564;-64
2022/09/30 06:20:36;;;;;;;13.70;10.23;;;;;;;;;;5101979;28;20226;-65
2022/09/30 06:23:04;;;;;;;15.37;10.97;;;;;;;;;;5093862;28;20292;-65
2022/09/30 06:25:31;;;;;;;28.23;12.50;;;;;;;;;;5104893;27;20306;-64
2022/09/30 06:27:58;;;;;;;29.07;11.20;;;;;;;;;;5108743;28;20290;-65
2022/09/30 06:30:26;;;;;;;57.57;13.43;;;;;;;;;;5094096;27;20205;-65
2022/09/30 06:33:00;;;;;;;99.27;14.20;;;;;;;;;;5114718;27;20191;-65
2022/09/30 06:35:27;;;;;;;33.77;14.17;;;;;;;;;;5113991;27;20223;-65
2022/09/30 06:37:55;;;;;;;86.97;15.50;;;;;;;;;;5113754;27;20302;-66
2022/09/30 06:40:22;;;;;;;97.60;13.17;;;;;;;;;;5124607;27;20690;-64
2022/09/30 06:42:49;;;;;;;21.37;11.80;;;;;;;;;;5099997;28;20200;-63
2022/09/30 06:45:21;;;;;;;19.37;12.13;;;;;;;;;;5093654;28;20725;-66
2022/09/30 06:47:59;;;;;;;30.73;12.27;;;;;;;;;;5094681;28;20215;-63
2022/09/30 06:50:27;;;;;;;31.10;13.20;;;;;;;;;;5096171;28;20200;-66
2022/09/30 06:52:58;;;;;;;32.53;13.40;;;;;;;;;;5093996;28;20200;-64
2022/09/30 06:55:26;;;;;;;28.77;13.97;;;;;;;;;;5093181;28;20255;-63
2022/09/30 06:57:54;;;;;;;20.47;11.77;;;;;;;;;;5101071;28;20316;-63
2022/09/30 07:00:22;;;;;;;21.50;11.80;;;;;;;;;;5115772;27;20282;-65
2022/09/30 07:02:50;;;;;;;37.07;12.27;;;;;;;;;;5112964;27;20199;-67
2022/09/30 07:05:17;;;;;;;18.63;12.27;;;;;;;;;;5093100;28;20216;-65
2022/09/30 07:07:45;;;;;;;17.67;11.83;;;;;;;;;;5093013;28;20204;-65
2022/09/30 07:10:13;;;;;;;17.97;12.07;;;;;;;;;;5093115;28;20204;-63
2022/09/30 07:12:41;;;;;;;18.70;13.17;;;;;;;;;;5093687;28;20210;-66
2022/09/30 07:15:08;;;;;;;25.20;14.80;;;;;;;;;;5096130;28;20304;-65
2022/09/30 07:17:40;;;;;;;23.07;14.03;;;;;;;;;;5091943;28;20224;-63
2022/09/30 07:20:07;;;;;;;19.43;13.50;;;;;;;;;;5125719;27;20210;-65
2022/09/30 07:22:35;;;;;;;27.43;14.07;;;;;;;;;;5094185;28;20227;-65
2022/09/30 07:25:03;;;;;;;24.23;13.83;;;;;;;;;;5092733;28;20320;-65
2022/09/30 07:27:32;;;;;;;22.87;14.90;;;;;;;;;;5092538;27;20571;-66
2022/09/30 07:30:01;;;;;;;18.77;12.83;;;;;;;;;;5090164;28;20236;-64
2022/09/30 07:32:40;;;;;;;17.40;12.83;;;;;;;;;;5108188;28;20204;-64
2022/09/30 07:35:07;;;;;;;20.87;11.23;;;;;;;;;;5092634;28;20923;-65
2022/09/30 07:37:35;;;;;;;17.00;11.80;;;;;;;;;;5092446;28;20330;-65
2022/09/30 07:40:06;;;;;;;17.17;11.70;;;;;;;;;;5093285;28;20287;-64
2022/09/30 07:42:36;;;;;;;19.33;13.23;;;;;;;;;;5096459;28;20722;-66
2022/09/30 07:45:04;;;;;;;18.40;13.13;;;;;;;;;;5087014;28;20777;-65
2022/09/30 07:47:31;;;;;;;16.87;12.03;;;;;;;;;;5076314;28;20675;-64
2022/09/30 07:50:02;;;;;;;17.00;12.23;;;;;;;;;;5089938;28;20204;-65
2022/09/30 07:52:30;;;;;;;18.37;12.43;;;;;;;;;;5098653;28;20307;-66
2022/09/30 07:54:57;;;;;;;21.20;13.03;;;;;;;;;;5096369;28;20314;-66
2022/09/30 07:57:24;;;;;;;23.37;13.40;;;;;;;;;;5115981;27;20212;-65
2022/09/30 07:59:52;;;;;;;19.13;12.80;;;;;;;;;;5102288;28;20287;-65
2022/09/30 08:02:19;;;;;;;19.03;13.87;;;;;;;;;;5096953;28;20200;-64
2022/09/30 08:04:47;;;;;;;23.20;16.67;;;;;;;;;;5096077;28;20200;-66
2022/09/30 08:07:15;;;;;;;16.87;13.50;;;;;;;;;;5094834;28;20208;-64
2022/09/30 08:09:43;;;;;;;14.10;11.77;;;;;;;;;;5080464;28;20287;-66
2022/09/30 08:12:10;;;;;;;15.90;12.37;;;;;;;;;;5090240;27;20207;-64
2022/09/30 08:14:38;;;;;;;19.27;15.27;;;;;;;;;;5105816;28;20203;-65
2022/09/30 08:17:05;;;;;;;15.80;12.80;;;;;;;;;;5095832;28;20319;-65
2022/09/30 08:19:33;;;;;;;14.23;10.97;;;;;;;;;;5096512;28;20900;-65
2022/09/30 08:22:00;;;;;;;15.47;12.07;;;;;;;;;;5096336;28;20239;-65
2022/09/30 08:24:27;;;;;;;14.30;11.40;;;;;;;;;;5096112;28;20204;-66
2022/09/30 08:26:55;;;;;;;16.03;11.87;;;;;;;;;;5095829;28;20311;-65
2022/09/30 08:29:22;;;;;;;16.67;12.43;;;;;;;;;;5098121;28;20212;-65
2022/09/30 08:32:09;;;;;;;14.13;11.27;;;;;;;;;;5098722;28;20210;-65
2022/09/30 08:34:37;;;;;;;13.93;10.67;;;;;;;;;;5095818;28;20206;-64
2022/09/30 08:37:04;;;;;;;15.83;11.17;;;;;;;;;;5097379;28;20335;-66
2022/09/30 08:39:36;;;;;;;12.50;10.40;;;;;;;;;;5098850;28;20497;-65
2022/09/30 08:42:15;;;;;;;11.33;8.90;;;;;;;;;;5091043;28;20288;-65
2022/09/30 08:45:12;;;;;;;13.03;8.40;;;;;;;;;;5102553;28;20230;-65
2022/09/30 08:47:40;;;;;;;14.73;9.90;;;;;;;;;;5106784;27;20551;-65
2022/09/30 08:50:15;;;;;;;13.43;10.00;;;;;;;;;;5128913;27;20261;-65
2022/09/30 08:52:48;;;;;;;10.47;7.67;;;;;;;;;;5116511;27;20238;-65
2022/09/30 08:55:24;;;;;;;11.90;8.80;;;;;;;;;;5114832;27;20315;-64
2022/09/30 08:57:52;;;;;;;11.27;8.20;;;;;;;;;;5093464;28;20259;-65
2022/09/30 09:00:20;;;;;;;11.63;8.90;;;;;;;;;;5107070;28;20625;-64
2022/09/30 09:02:51;;;;;;;22.40;15.77;;;;;;;;;;5111561;28;20239;-65
2022/09/30 09:05:27;;;;;;;11.17;8.60;;;;;;;;;;5094632;28;20251;-64
2022/09/30 09:08:03;;;;;;;10.23;7.97;;;;;;;;;;5074654;28;20300;-65
2022/09/30 09:10:30;;;;;;;9.87;7.23;;;;;;;;;;5077274;27;20343;-65
2022/09/30 09:13:09;;;;;;;8.07;6.77;;;;;;;;;;5101885;28;20299;-64
2022/09/30 09:16:00;;;;;;;9.57;7.53;;;;;;;;;;5094475;28;20232;-65
2022/09/30 09:18:27;;;;;;;10.27;7.87;;;;;;;;;;5103656;27;20394;-64
2022/09/30 09:20:59;;;;;;;7.87;6.90;;;;;;;;;;5120418;27;20261;-65
2022/09/30 09:23:27;;;;;;;8.67;7.07;;;;;;;;;;5094855;28;20291;-64
2022/09/30 09:25:54;;;;;;;8.07;7.07;;;;;;;;;;5094007;28;20255;-65
2022/09/30 09:28:32;;;;;;;7.30;6.60;;;;;;;;;;5094410;28;20670;-65
2022/09/30 09:31:00;;;;;;;7.53;6.40;;;;;;;;;;5089892;28;20208;-64
2022/09/30 09:33:29;;;;;;;7.80;6.70;;;;;;;;;;5101639;27;20293;-65
2022/09/30 09:36:15;;;;;;;7.27;6.47;;;;;;;;;;5115070;27;20625;-65
2022/09/30 09:38:58;;;;;;;7.20;6.20;;;;;;;;;;5112675;27;20307;-65
2022/09/30 09:41:44;;;;;;;6.73;5.77;;;;;;;;;;5097129;28;20284;-65
2022/09/30 09:44:31;;;;;;;6.90;6.00;;;;;;;;;;5093740;28;20271;-65
2022/09/30 09:47:05;;;;;;;7.63;6.10;;;;;;;;;;5076337;28;20303;-64
2022/09/30 09:49:34;;;;;;;7.53;6.10;;;;;;;;;;5095844;28;20211;-64
2022/09/30 09:52:13;;;;;;;6.10;5.50;;;;;;;;;;5079763;28;20291;-65
2022/09/30 09:54:51;;;;;;;6.70;5.80;;;;;;;;;;5096488;27;20282;-64
2022/09/30 09:57:23;;;;;;;8.73;6.23;;;;;;;;;;5113040;27;20258;-65
2022/09/30 09:59:57;;;;;;;8.13;6.03;;;;;;;;;;5096872;28;20261;-65
2022/09/30 10:02:25;;;;;;;8.23;6.13;;;;;;;;;;5094624;28;20657;-64
2022/09/30 10:04:58;;;;;;;5.90;5.30;;;;;;;;;;5092596;28;20402;-64
2022/09/30 10:07:31;;;;;;;5.70;5.10;;;;;;;;;;5077020;28;20315;-65
2022/09/30 10:10:11;;;;;;;6.50;5.30;;;;;;;;;;5091614;27;20753;-64
2022/09/30 10:12:40;;;;;;;8.13;6.67;;;;;;;;;;5092447;28;20242;-65
2022/09/30 10:15:20;;;;;;;7.60;4.90;;;;;;;;;;5092044;28;20224;-65
2022/09/30 10:17:52;;;;;;;6.37;5.23;;;;;;;;;;5113207;27;20308;-65
2022/09/30 10:20:27;;;;;;;6.33;4.70;;;;;;;;;;5114533;27;20227;-65
2022/09/30 10:23:09;;;;;;;6.15;5.05;;;;;;;;;;5108450;28;20295;-65
2022/09/30 10:25:36;;;;;;;5.03;4.03;;;;;;;;;;5106713;28;20212;-65
2022/09/30 10:28:20;;;;;;;4.75;3.72;;;;;;;;;;5107992;28;20212;-65
2022/09/30 10:30:59;;;;;;;4.65;3.83;;;;;;;;;;5113761;27;20207;-65
2022/09/30 10:33:29;;;;;;;4.35;3.58;;;;;;;;;;5110409;28;20212;-66
2022/09/30 10:36:00;;;;;;;5.15;4.40;;;;;;;;;;5112251;28;20281;-64
2022/09/30 10:38:30;;;;;;;6.03;4.05;;;;;;;;;;5110830;27;20255;-65
2022/09/30 10:40:58;;;;;;;4.50;3.70;;;;;;;;;;5100670;28;20212;-66
2022/09/30 10:43:48;;;;;;;4.70;3.60;;;;;;;;;;5085487;28;20419;-64
2022/09/30 10:46:23;;;;;;;4.28;3.90;;;;;;;;;;5097791;28;20315;-65
2022/09/30 10:48:55;;;;;;;5.95;3.85;;;;;;;;;;5093955;28;20662;-65
2022/09/30 10:51:34;;;;;;;5.30;3.70;;;;;;;;;;5111672;28;20287;-64
2022/09/30 10:54:04;;;;;;;3.88;3.45;;;;;;;;;;5093397;28;20196;-66
2022/09/30 10:56:33;;;;;;;4.20;3.58;;;;;;;;;;5091433;28;20307;-65
2022/09/30 10:59:03;;;;;;;6.72;4.95;;;;;;;;;;5103057;28;20230;-65
2022/09/30 11:01:40;;;;;;;5.53;4.50;;;;;;;;;;5092722;28;20284;-65
2022/09/30 11:04:13;;;;;;;5.18;4.22;;;;;;;;;;5092791;28;20261;-66
2022/09/30 11:06:42;;;;;;;5.57;4.50;;;;;;;;;;5108080;28;20712;-66
2022/09/30 11:09:17;;;;;;;5.15;4.65;;;;;;;;;;5109754;28;20303;-64
2022/09/30 11:11:50;;;;;;;6.93;4.57;;;;;;;;;;5103100;28;20282;-66
2022/09/30 11:14:29;;;;;;;4.97;4.15;;;;;;;;;;5103983;28;20262;-65
2022/09/30 11:17:04;;;;;;;6.07;4.45;;;;;;;;;;5072207;28;20256;-64
2022/09/30 11:19:47;;;;;;;4.85;3.92;;;;;;;;;;5092875;27;20657;-65
2022/09/30 11:22:14;;;;;;;4.55;4.10;;;;;;;;;;5113287;27;20206;-66
2022/09/30 11:24:44;;;;;;;4.70;3.38;;;;;;;;;;5111004;27;20246;-65
2022/09/30 11:27:17;;;;;;;5.90;4.43;;;;;;;;;;5094923;28;20235;-65
2022/09/30 11:30:00;;;;;;;5.70;3.35;;;;;;;;;;5101861;27;20749;-66
2022/09/30 11:32:46;;;;;;;4.13;3.60;;;;;;;;;;5095310;28;20291;-65
2022/09/30 11:35:26;;;;;;;4.90;3.55;;;;;;;;;;5112804;27;20250;-65
2022/09/30 11:37:54;;;;;;;5.68;3.65;;;;;;;;;;5130827;27;20347;-66
2022/09/30 11:40:21;;;;;;;4.97;4.10;;;;;;;;;;5098030;28;20232;-66
2022/09/30 11:42:52;;;;;;;5.47;4.07;;;;;;;;;;5112778;28;20203;-65
2022/09/30 11:45:25;;;;;;;6.13;4.00;;;;;;;;;;5094979;28;20250;-63
2022/09/30 11:48:12;;;;;;;4.30;3.75;;;;;;;;;;5104157;28;20209;-65
2022/09/30 11:50:52;;;;;;;5.05;3.78;;;;;;;;;;5088994;28;20219;-65
2022/09/30 11:53:38;;;;;;;4.65;3.55;;;;;;;;;;5086586;28;20610;-65
2022/09/30 11:56:08;;;;;;;5.10;3.92;;;;;;;;;;5091898;28;20315;-65
2022/09/30 11:58:49;;;;;;;4.05;3.65;;;;;;;;;;5093626;28;20315;-66
2022/09/30 12:01:34;;;;;;;5.93;3.17;;;;;;;;;;5096443;28;20922;-66
2022/09/30 12:04:05;;;;;;;4.22;3.40;;;;;;;;;;5087686;28;20737;-65
2022/09/30 12:06:43;;;;;;;4.25;3.58;;;;;;;;;;5073860;28;20259;-67
2022/09/30 12:09:36;;;;;;;3.42;3.13;;;;;;;;;;5086195;28;20653;-65
2022/09/30 12:12:07;;;;;;;3.38;2.97;;;;;;;;;;5088935;28;20246;-66
2022/09/30 12:14:53;;;;;;;3.50;3.20;;;;;;;;;;5093139;28;20208;-66
2022/09/30 12:17:25;;;;;;;3.40;3.10;;;;;;;;;;5091676;28;20535;-65
2022/09/30 12:19:54;;;;;;;3.22;2.92;;;;;;;;;;5091767;28;20854;-66
2022/09/30 12:22:42;;;;;;;3.33;2.97;;;;;;;;;;5083245;28;20256;-65
2022/09/30 12:25:14;;;;;;;5.32;2.90;;;;;;;;;;5097000;28;20316;-66
2022/09/30 12:27:46;;;;;;;3.55;2.88;;;;;;;;;;5110621;27;20669;-64
2022/09/30 12:30:16;;;;;;;3.42;3.13;;;;;;;;;;5097830;28;20658;-66
2022/09/30 12:33:02;;;;;;;3.38;2.97;;;;;;;;;;5096023;28;20204;-66
2022/09/30 12:35:30;;;;;;;3.05;2.72;;;;;;;;;;5095637;28;20732;-66
2022/09/30 12:38:03;;;;;;;3.45;3.15;;;;;;;;;;5113625;28;20620;-64
2022/09/30 12:40:49;;;;;;;3.67;3.30;;;;;;;;;;5077995;28;20213;-67
2022/09/30 12:43:29;;;;;;;3.08;2.78;;;;;;;;;;5094478;28;20212;-66
2022/09/30 12:46:05;;;;;;;3.30;3.00;;;;;;;;;;5090212;28;20247;-65
2022/09/30 12:48:36;;;;;;;3.55;3.08;;;;;;;;;;5095688;28;20215;-64
2022/09/30 12:51:04;;;;;;;2.90;2.70;;;;;;;;;;5095530;28;20272;-66
2022/09/30 12:53:37;;;;;;;4.72;2.90;;;;;;;;;;5107036;28;20271;-65
2022/09/30 12:56:09;;;;;;;3.90;3.22;;;;;;;;;;5098599;28;20710;-66
2022/09/30 12:58:38;;;;;;;3.55;2.65;;;;;;;;;;5093505;28;20224;-66
2022/09/30 13:01:14;;;;;;;2.90;2.65;;;;;;;;;;5099365;28;20202;-64
2022/09/30 13:03:47;;;;;;;3.28;2.95;;;;;;;;;;5095263;28;20204;-65
2022/09/30 13:06:15;;;;;;;3.75;3.45;;;;;;;;;;5094187;28;20315;-65
2022/09/30 13:09:07;;;;;;;3.78;3.38;;;;;;;;;;5095839;28;20619;-66
2022/09/30 13:11:40;;;;;;;4.22;3.10;;;;;;;;;;5095108;28;20681;-64
2022/09/30 13:14:11;;;;;;;4.18;2.90;;;;;;;;;;5080962;28;20244;-64
2022/09/30 13:16:57;;;;;;;3.55;3.25;;;;;;;;;;5074664;28;20227;-65
2022/09/30 13:19:33;;;;;;;3.45;2.83;;;;;;;;;;5074607;28;20224;-66
2022/09/30 13:22:31;;;;;;;3.45;3.00;;;;;;;;;;5087888;28;20602;-65
2022/09/30 13:25:04;;;;;;;4.10;3.33;;;;;;;;;;5077154;28;20732;-65
2022/09/30 13:27:43;;;;;;;5.05;3.90;;;;;;;;;;5078849;27;20249;-65
2022/09/30 13:30:16;;;;;;;4.43;3.75;;;;;;;;;;5091510;28;20295;-67
2022/09/30 13:32:50;;;;;;;3.67;3.15;;;;;;;;;;5092443;28;20288;-66
2022/09/30 13:35:36;;;;;;;4.65;2.78;;;;;;;;;;5074525;28;20593;-66
2022/09/30 13:38:12;;;;;;;3.00;2.40;;;;;;;;;;5092065;28;20227;-65
2022/09/30 13:40:52;;;;;;;3.40;2.95;;;;;;;;;;5073189;28;20237;-66
2022/09/30 13:43:39;;;;;;;3.28;2.97;;;;;;;;;;5075493;28;20201;-66
2022/09/30 13:46:11;;;;;;;2.95;2.65;;;;;;;;;;5119622;27;20255;-67
2022/09/30 13:48:40;;;;;;;3.45;2.78;;;;;;;;;;5093131;28;20330;-66
2022/09/30 13:51:13;;;;;;;3.03;2.53;;;;;;;;;;5094221;28;20204;-65
2022/09/30 13:53:40;;;;;;;4.75;3.08;;;;;;;;;;5094409;28;20474;-65
2022/09/30 13:56:12;;;;;;;3.92;3.03;;;;;;;;;;5094293;28;20228;-64
2022/09/30 13:58:39;;;;;;;5.57;2.90;;;;;;;;;;5095903;27;20211;-64
2022/09/30 14:01:13;;;;;;;3.38;2.72;;;;;;;;;;5097751;28;20192;-68
2022/09/30 14:03:43;;;;;;;2.38;2.17;;;;;;;;;;5092954;28;20354;-66
2022/09/30 14:06:21;;;;;;;3.47;3.17;;;;;;;;;;5073410;28;20270;-65
2022/09/30 14:09:01;;;;;;;5.35;3.40;;;;;;;;;;5073907;28;20189;-65
2022/09/30 14:11:38;;;;;;;4.15;3.53;;;;;;;;;;5073495;28;20678;-66
2022/09/30 14:14:40;;;;;;;4.10;3.53;;;;;;;;;;5074071;28;20231;-64
2022/09/30 14:17:21;;;;;;;4.97;3.35;;;;;;;;;;5028216;28;20721;-65
2022/09/30 14:19:58;;;;;;;4.70;3.28;;;;;;;;;;5069215;28;20328;-64
2022/09/30 14:22:28;;;;;;;4.95;4.13;;;;;;;;;;5099835;28;20201;-64
2022/09/30 14:24:57;;;;;;;4.43;3.80;;;;;;;;;;5093180;28;20216;-67
2022/09/30 14:27:36;;;;;;;4.43;3.80;;;;;;;;;;5093277;28;20234;-64
2022/09/30 14:30:03;;;;;;;4.10;3.70;;;;;;;;;;5092360;28;20458;-65
2022/09/30 14:32:31;;;;;;;3.95;3.55;;;;;;;;;;5073783;28;20209;-68
2022/09/30 14:34:59;;;;;;;5.03;3.45;;;;;;;;;;5073606;28;20225;-64
2022/09/30 14:37:30;;;;;;;4.18;3.65;;;;;;;;;;5076097;28;20568;-66
2022/09/30 14:39:58;;;;;;;4.43;3.53;;;;;;;;;;5106987;28;20239;-68
2022/09/30 14:42:29;;;;;;;3.40;3.05;;;;;;;;;;5134368;28;20223;-66
2022/09/30 14:45:03;;;;;;;4.65;2.83;;;;;;;;;;5107428;28;20543;-64
2022/09/30 14:47:36;;;;;;;3.20;2.90;;;;;;;;;;5109685;27;20294;-64
2022/09/30 14:50:08;;;;;;;3.35;3.05;;;;;;;;;;5114105;27;20258;-66
2022/09/30 14:52:44;;;;;;;3.05;2.75;;;;;;;;;;5114109;27;20659;-63
2022/09/30 14:55:22;;;;;;;3.53;2.97;;;;;;;;;;5095238;27;20231;-67
2022/09/30 14:57:49;;;;;;;3.25;2.90;;;;;;;;;;5098544;27;20641;-66
2022/09/30 15:00:22;;;;;;;3.55;3.17;;;;;;;;;;5095015;28;20236;-64
2022/09/30 15:02:49;;;;;;;4.35;2.70;;;;;;;;;;5093325;28;20283;-65
2022/09/30 15:05:17;;;;;;;3.13;2.83;;;;;;;;;;5092467;28;20246;-66